sensor_id;sensor_type;location;lat;lon;timestamp;pressure;altitude;pressure_sealevel;temperature;humidity
64354;BME280;50681;53.334;-6.536;2023-05-13T00:00:46;102361.00;;;16.47;100.00
64354;BME280;50681;53.334;-6.536;2023-05-13T00:03:12;102350.94;;;16.48;100.00
64354;BME280;50681;53.334;-6.536;2023-05-13T00:05:37;102350.94;;;16.48;100.00
64354;BME280;50681;53.334;-6.536;2023-05-13T00:08:03;102364.31;;;16.44;100.00
64354;BME280;50681;53.334;-6.536;2023-05-13T00:10:34;102353.31;;;16.54;100.00
64354;BME280;50681;53.334;-6.536;2023-05-13T00:13:00;102343.28;;;16.50;100.00
64354;BME280;50681;53.334;-6.536;2023-05-13T00:15:26;102344.38;;;16.49;100.00
64354;BME280;50681;53.334;-6.536;2023-05-13T00:17:52;102342.75;;;16.48;100.00
64354;BME280;50681;53.334;-6.536;2023-05-13T00:20:17;102347.72;;;16.40;100.00
64354;BME280;50681;53.334;-6.536;2023-05-13T00:22:43;102350.72;;;16.39;100.00
64354;BME280;50681;53.334;-6.536;2023-05-13T00:25:08;102343.41;;;16.34;100.00
64354;BME280;50681;53.334;-6.536;2023-05-13T00:27:34;102340.72;;;16.29;100.00
64354;BME280;50681;53.334;-6.536;2023-05-13T00:29:59;102344.28;;;16.24;100.00
64354;BME280;50681;53.334;-6.536;2023-05-13T00:32:25;102342.16;;;16.16;100.00
64354;BME280;50681;53.334;-6.536;2023-05-13T00:34:50;102343.69;;;16.27;100.00
64354;BME280;50681;53.334;-6.536;2023-05-13T00:37:16;102341.00;;;16.22;100.00
64354;BME280;50681;53.334;-6.536;2023-05-13T00:39:41;102342.16;;;16.16;100.00
64354;BME280;50681;53.334;-6.536;2023-05-13T00:42:07;102348.44;;;16.16;100.00
64354;BME280;50681;53.334;-6.536;2023-05-13T00:44:35;102339.53;;;16.00;100.00
64354;BME280;50681;53.334;-6.536;2023-05-13T00:47:00;102331.34;;;16.00;100.00
64354;BME280;50681;53.334;-6.536;2023-05-13T00:49:26;102332.34;;;15.65;100.00
64354;BME280;50681;53.334;-6.536;2023-05-13T00:51:51;102334.50;;;15.73;100.00
64354;BME280;50681;53.334;-6.536;2023-05-13T00:54:19;102330.97;;;15.72;100.00
64354;BME280;50681;53.334;-6.536;2023-05-13T00:56:44;102340.97;;;15.87;100.00
64354;BME280;50681;53.334;-6.536;2023-05-13T00:59:10;102340.19;;;15.82;100.00
64354;BME280;50681;53.334;-6.536;2023-05-13T01:02:02;102335.59;;;16.17;100.00
64354;BME280;50681;53.334;-6.536;2023-05-13T01:10:12;102334.06;;;15.45;100.00
64354;BME280;50681;53.334;-6.536;2023-05-13T01:12:41;102325.28;;;15.64;100.00
64354;BME280;50681;53.334;-6.536;2023-05-13T01:15:10;102325.09;;;15.50;100.00
64354;BME280;50681;53.334;-6.536;2023-05-13T01:17:46;102326.72;;;15.51;100.00
64354;BME280;50681;53.334;-6.536;2023-05-13T01:20:17;102326.75;;;15.46;100.00
64354;BME280;50681;53.334;-6.536;2023-05-13T01:22:45;102325.16;;;15.34;100.00
64354;BME280;50681;53.334;-6.536;2023-05-13T01:25:10;102324.66;;;15.22;100.00
64354;BME280;50681;53.334;-6.536;2023-05-13T01:27:36;102321.09;;;15.21;100.00
64354;BME280;50681;53.334;-6.536;2023-05-13T01:30:01;102325.16;;;15.29;100.00
64354;BME280;50681;53.334;-6.536;2023-05-13T01:32:27;102320.56;;;15.19;100.00
64354;BME280;50681;53.334;-6.536;2023-05-13T01:34:54;102326.78;;;15.35;100.00
64354;BME280;50681;53.334;-6.536;2023-05-13T01:37:20;102336.09;;;15.19;100.00
64354;BME280;50681;53.334;-6.536;2023-05-13T01:39:46;102320.88;;;15.07;100.00
64354;BME280;50681;53.334;-6.536;2023-05-13T01:42:12;102326.34;;;15.02;100.00
64354;BME280;50681;53.334;-6.536;2023-05-13T01:44:37;102326.91;;;14.83;100.00
64354;BME280;50681;53.334;-6.536;2023-05-13T01:47:03;102319.00;;;14.82;100.00
64354;BME280;50681;53.334;-6.536;2023-05-13T01:49:28;102313.16;;;15.96;100.00
64354;BME280;50681;53.334;-6.536;2023-05-13T01:51:54;102310.06;;;15.57;100.00
64354;BME280;50681;53.334;-6.536;2023-05-13T01:54:19;102309.88;;;15.43;100.00
64354;BME280;50681;53.334;-6.536;2023-05-13T01:56:45;102306.56;;;15.52;100.00
64354;BME280;50681;53.334;-6.536;2023-05-13T01:59:10;102312.25;;;15.55;100.00
64354;BME280;50681;53.334;-6.536;2023-05-13T02:01:35;102318.00;;;15.54;100.00
64354;BME280;50681;53.334;-6.536;2023-05-13T02:04:01;102317.47;;;15.47;100.00
64354;BME280;50681;53.334;-6.536;2023-05-13T02:06:26;102314.78;;;15.41;100.00
64354;BME280;50681;53.334;-6.536;2023-05-13T02:08:52;102317.75;;;15.45;100.00
64354;BME280;50681;53.334;-6.536;2023-05-13T02:11:18;102318.91;;;15.28;100.00
64354;BME280;50681;53.334;-6.536;2023-05-13T02:13:44;102317.56;;;15.26;100.00
64354;BME280;50681;53.334;-6.536;2023-05-13T02:16:13;102309.00;;;15.53;100.00
64354;BME280;50681;53.334;-6.536;2023-05-13T02:18:39;102319.16;;;15.37;100.00
64354;BME280;50681;53.334;-6.536;2023-05-13T02:21:05;102312.13;;;15.26;100.00
64354;BME280;50681;53.334;-6.536;2023-05-13T02:23:30;102319.16;;;15.32;100.00
64354;BME280;50681;53.334;-6.536;2023-05-13T02:25:56;102317.81;;;15.24;100.00
64354;BME280;50681;53.334;-6.536;2023-05-13T02:28:21;102324.66;;;15.17;100.00
64354;BME280;50681;53.334;-6.536;2023-05-13T02:30:47;102326.31;;;15.12;100.00
64354;BME280;50681;53.334;-6.536;2023-05-13T02:33:12;102316.00;;;14.99;100.00
64354;BME280;50681;53.334;-6.536;2023-05-13T02:35:38;102316.03;;;14.89;100.00
64354;BME280;50681;53.334;-6.536;2023-05-13T02:38:03;102315.72;;;14.95;100.00
64354;BME280;50681;53.334;-6.536;2023-05-13T02:40:29;102313.84;;;14.86;100.00
64354;BME280;50681;53.334;-6.536;2023-05-13T02:42:54;102320.94;;;14.76;100.00
64354;BME280;50681;53.334;-6.536;2023-05-13T02:45:19;102328.00;;;14.82;100.00
64354;BME280;50681;53.334;-6.536;2023-05-13T02:47:45;102319.31;;;14.80;100.00
64354;BME280;50681;53.334;-6.536;2023-05-13T02:50:19;102308.34;;;15.11;100.00
64354;BME280;50681;53.334;-6.536;2023-05-13T02:52:44;102311.69;;;14.72;100.00
64354;BME280;50681;53.334;-6.536;2023-05-13T02:55:12;102313.59;;;14.72;100.00
64354;BME280;50681;53.334;-6.536;2023-05-13T02:57:37;102317.13;;;14.41;100.00
64354;BME280;50681;53.334;-6.536;2023-05-13T03:00:04;102314.13;;;14.37;100.00
64354;BME280;50681;53.334;-6.536;2023-05-13T03:02:30;102306.78;;;14.69;100.00
64354;BME280;50681;53.334;-6.536;2023-05-13T03:04:55;102295.94;;;14.28;100.00
64354;BME280;50681;53.334;-6.536;2023-05-13T03:07:22;102292.66;;;14.25;100.00
64354;BME280;50681;53.334;-6.536;2023-05-13T03:09:48;102296.19;;;14.16;100.00
64354;BME280;50681;53.334;-6.536;2023-05-13T03:12:16;102296.47;;;14.14;100.00
64354;BME280;50681;53.334;-6.536;2023-05-13T03:14:41;102300.25;;;14.08;100.00
64354;BME280;50681;53.334;-6.536;2023-05-13T03:17:09;102304.88;;;14.13;100.00
64354;BME280;50681;53.334;-6.536;2023-05-13T03:19:36;102302.97;;;14.03;100.00
64354;BME280;50681;53.334;-6.536;2023-05-13T03:22:02;102312.22;;;14.38;100.00
64354;BME280;50681;53.334;-6.536;2023-05-13T03:24:27;102298.59;;;13.91;100.00
64354;BME280;50681;53.334;-6.536;2023-05-13T03:26:53;102303.19;;;13.86;100.00
64354;BME280;50681;53.334;-6.536;2023-05-13T03:29:18;102307.19;;;13.52;100.00
64354;BME280;50681;53.334;-6.536;2023-05-13T03:31:44;102305.78;;;13.44;100.00
64354;BME280;50681;53.334;-6.536;2023-05-13T03:34:09;102304.50;;;13.62;100.00
64354;BME280;50681;53.334;-6.536;2023-05-13T03:36:35;102300.38;;;13.55;100.00
64354;BME280;50681;53.334;-6.536;2023-05-13T03:39:00;102316.72;;;13.65;100.00
64354;BME280;50681;53.334;-6.536;2023-05-13T03:41:26;102310.97;;;13.51;100.00
64354;BME280;50681;53.334;-6.536;2023-05-13T03:43:52;102319.22;;;13.82;100.00
64354;BME280;50681;53.334;-6.536;2023-05-13T03:46:18;102311.34;;;13.96;100.00
64354;BME280;50681;53.334;-6.536;2023-05-13T03:48:44;102314.91;;;13.96;100.00
64354;BME280;50681;53.334;-6.536;2023-05-13T03:51:09;102315.44;;;13.99;100.00
64354;BME280;50681;53.334;-6.536;2023-05-13T03:53:35;102319.78;;;13.94;100.00
64354;BME280;50681;53.334;-6.536;2023-05-13T03:56:00;102310.81;;;13.89;100.00
64354;BME280;50681;53.334;-6.536;2023-05-13T03:58:26;102313.81;;;13.98;100.00
64354;BME280;50681;53.334;-6.536;2023-05-13T04:00:51;102320.59;;;13.95;100.00
64354;BME280;50681;53.334;-6.536;2023-05-13T04:03:16;102311.66;;;14.00;100.00
64354;BME280;50681;53.334;-6.536;2023-05-13T04:05:45;102315.50;;;14.35;100.00
64354;BME280;50681;53.334;-6.536;2023-05-13T04:08:11;102308.94;;;14.05;100.00
64354;BME280;50681;53.334;-6.536;2023-05-13T04:10:36;102308.13;;;14.25;100.00
64354;BME280;50681;53.334;-6.536;2023-05-13T04:13:02;102301.63;;;14.78;100.00
64354;BME280;50681;53.334;-6.536;2023-05-13T04:15:28;102303.53;;;14.67;100.00
64354;BME280;50681;53.334;-6.536;2023-05-13T04:17:56;102305.16;;;14.63;100.00
64354;BME280;50681;53.334;-6.536;2023-05-13T04:20:21;102305.16;;;14.58;100.00
64354;BME280;50681;53.334;-6.536;2023-05-13T04:22:47;102299.47;;;14.69;100.00
64354;BME280;50681;53.334;-6.536;2023-05-13T04:25:12;102295.91;;;14.79;100.00
64354;BME280;50681;53.334;-6.536;2023-05-13T04:27:38;102299.41;;;14.95;100.00
64354;BME280;50681;53.334;-6.536;2023-05-13T04:30:03;102298.03;;;15.08;100.00
64354;BME280;50681;53.334;-6.536;2023-05-13T04:32:29;102297.50;;;15.06;100.00
64354;BME280;50681;53.334;-6.536;2023-05-13T04:34:55;102299.63;;;15.20;100.00
64354;BME280;50681;53.334;-6.536;2023-05-13T04:37:20;102293.06;;;15.26;100.00
64354;BME280;50681;53.334;-6.536;2023-05-13T04:39:46;102292.75;;;15.33;100.00
64354;BME280;50681;53.334;-6.536;2023-05-13T04:42:15;102285.03;;;15.55;100.00
64354;BME280;50681;53.334;-6.536;2023-05-13T04:44:41;102289.78;;;15.29;100.00
64354;BME280;50681;53.334;-6.536;2023-05-13T04:47:06;102289.53;;;15.20;100.00
64354;BME280;50681;53.334;-6.536;2023-05-13T04:49:32;102283.03;;;15.16;100.00
64354;BME280;50681;53.334;-6.536;2023-05-13T04:51:59;102300.69;;;15.24;100.00
64354;BME280;50681;53.334;-6.536;2023-05-13T04:54:25;102295.28;;;15.19;100.00
64354;BME280;50681;53.334;-6.536;2023-05-13T04:56:50;102301.53;;;15.09;100.00
64354;BME280;50681;53.334;-6.536;2023-05-13T04:59:16;102300.19;;;15.11;100.00
64354;BME280;50681;53.334;-6.536;2023-05-13T05:01:41;102298.56;;;15.10;100.00
64354;BME280;50681;53.334;-6.536;2023-05-13T05:04:07;102290.66;;;15.09;100.00
64354;BME280;50681;53.334;-6.536;2023-05-13T05:06:32;102301.34;;;14.59;100.00
64354;BME280;50681;53.334;-6.536;2023-05-13T05:08:58;102295.38;;;14.51;100.00
64354;BME280;50681;53.334;-6.536;2023-05-13T05:11:23;102288.56;;;14.44;100.00
64354;BME280;50681;53.334;-6.536;2023-05-13T05:13:49;102288.03;;;14.57;100.00
64354;BME280;50681;53.334;-6.536;2023-05-13T05:16:14;102285.31;;;14.47;100.00
64354;BME280;50681;53.334;-6.536;2023-05-13T05:18:40;102293.22;;;14.48;100.00
64354;BME280;50681;53.334;-6.536;2023-05-13T05:21:07;102287.47;;;14.55;100.00
64354;BME280;50681;53.334;-6.536;2023-05-13T05:23:33;102287.47;;;14.50;100.00
64354;BME280;50681;53.334;-6.536;2023-05-13T05:25:58;102271.72;;;14.47;100.00
64354;BME280;50681;53.334;-6.536;2023-05-13T05:28:25;102284.75;;;14.50;100.00
64354;BME280;50681;53.334;-6.536;2023-05-13T05:30:50;102276.38;;;14.36;100.00
64354;BME280;50681;53.334;-6.536;2023-05-13T05:33:17;102284.19;;;14.68;100.00
64354;BME280;50681;53.334;-6.536;2023-05-13T05:35:42;102287.22;;;14.72;100.00
64354;BME280;50681;53.334;-6.536;2023-05-13T05:38:10;102289.59;;;14.99;100.00
64354;BME280;50681;53.334;-6.536;2023-05-13T05:40:40;102290.97;;;14.97;100.00
64354;BME280;50681;53.334;-6.536;2023-05-13T05:43:06;102292.13;;;14.75;100.00
64354;BME280;50681;53.334;-6.536;2023-05-13T05:45:33;102304.84;;;14.95;100.00
64354;BME280;50681;53.334;-6.536;2023-05-13T05:47:59;102304.88;;;14.85;100.00
64354;BME280;50681;53.334;-6.536;2023-05-13T05:50:24;102305.13;;;14.94;100.00
64354;BME280;50681;53.334;-6.536;2023-05-13T05:52:50;102306.16;;;15.19;100.00
64354;BME280;50681;53.334;-6.536;2023-05-13T05:55:15;102303.75;;;15.02;100.00
64354;BME280;50681;53.334;-6.536;2023-05-13T05:57:40;102305.03;;;15.30;100.00
64354;BME280;50681;53.334;-6.536;2023-05-13T06:00:06;102302.25;;;15.46;100.00
64354;BME280;50681;53.334;-6.536;2023-05-13T06:02:32;102302.75;;;15.53;100.00
64354;BME280;50681;53.334;-6.536;2023-05-13T06:04:58;102305.88;;;15.20;100.00
64354;BME280;50681;53.334;-6.536;2023-05-13T06:07:23;102299.72;;;14.83;100.00
64354;BME280;50681;53.334;-6.536;2023-05-13T06:09:49;102312.50;;;14.78;100.00
64354;BME280;50681;53.334;-6.536;2023-05-13T06:12:14;102310.06;;;14.71;100.00
64354;BME280;50681;53.334;-6.536;2023-05-13T06:14:40;102315.47;;;14.92;100.00
64354;BME280;50681;53.334;-6.536;2023-05-13T06:17:05;102309.22;;;14.81;100.00
64354;BME280;50681;53.334;-6.536;2023-05-13T06:19:31;102307.25;;;15.18;100.00
64354;BME280;50681;53.334;-6.536;2023-05-13T06:21:56;102316.47;;;15.27;100.00
64354;BME280;50681;53.334;-6.536;2023-05-13T06:24:21;102316.13;;;15.39;100.00
64354;BME280;50681;53.334;-6.536;2023-05-13T06:26:47;102304.38;;;15.54;100.00
64354;BME280;50681;53.334;-6.536;2023-05-13T06:29:12;102308.44;;;15.56;100.00
64354;BME280;50681;53.334;-6.536;2023-05-13T06:31:38;102308.28;;;15.82;100.00
64354;BME280;50681;53.334;-6.536;2023-05-13T06:34:03;102309.56;;;16.00;100.00
64354;BME280;50681;53.334;-6.536;2023-05-13T06:36:29;102310.28;;;16.16;100.00
64354;BME280;50681;53.334;-6.536;2023-05-13T06:38:54;102309.56;;;16.00;100.00
64354;BME280;50681;53.334;-6.536;2023-05-13T06:41:19;102298.13;;;15.98;100.00
64354;BME280;50681;53.334;-6.536;2023-05-13T06:43:45;102288.59;;;16.01;100.00
64354;BME280;50681;53.334;-6.536;2023-05-13T06:46:13;102302.41;;;16.10;100.00
64354;BME280;50681;53.334;-6.536;2023-05-13T06:48:38;102299.78;;;16.34;100.00
64354;BME280;50681;53.334;-6.536;2023-05-13T06:51:04;102292.09;;;16.41;100.00
64354;BME280;50681;53.334;-6.536;2023-05-13T06:53:29;102288.34;;;16.32;100.00
64354;BME280;50681;53.334;-6.536;2023-05-13T06:55:56;102297.19;;;16.19;100.00
64354;BME280;50681;53.334;-6.536;2023-05-13T06:58:21;102295.66;;;16.37;100.00
64354;BME280;50681;53.334;-6.536;2023-05-13T07:00:47;102300.66;;;16.59;100.00
64354;BME280;50681;53.334;-6.536;2023-05-13T07:03:12;102300.78;;;16.73;100.00
64354;BME280;50681;53.334;-6.536;2023-05-13T07:05:38;102294.19;;;16.79;100.00
64354;BME280;50681;53.334;-6.536;2023-05-13T07:08:04;102301.13;;;17.20;100.00
64354;BME280;50681;53.334;-6.536;2023-05-13T07:10:34;102290.69;;;17.03;100.00
64354;BME280;50681;53.334;-6.536;2023-05-13T07:13:00;102289.06;;;16.72;100.00
64354;BME280;50681;53.334;-6.536;2023-05-13T07:15:26;102286.03;;;16.74;100.00
64354;BME280;50681;53.334;-6.536;2023-05-13T07:17:52;102284.19;;;17.23;100.00
64354;BME280;50681;53.334;-6.536;2023-05-13T07:20:17;102293.00;;;16.85;100.00
64354;BME280;50681;53.334;-6.536;2023-05-13T07:22:49;102280.66;;;16.93;100.00
64354;BME280;50681;53.334;-6.536;2023-05-13T07:25:15;102278.28;;;16.86;100.00
64354;BME280;50681;53.334;-6.536;2023-05-13T07:27:40;102289.69;;;17.18;100.00
64354;BME280;50681;53.334;-6.536;2023-05-13T07:30:06;102285.50;;;17.26;100.00
64354;BME280;50681;53.334;-6.536;2023-05-13T07:32:31;102281.00;;;17.16;100.00
64354;BME280;50681;53.334;-6.536;2023-05-13T07:34:57;102292.06;;;17.25;100.00
64354;BME280;50681;53.334;-6.536;2023-05-13T07:37:22;102292.91;;;17.44;100.00
64354;BME280;50681;53.334;-6.536;2023-05-13T07:39:48;102291.91;;;17.59;100.00
64354;BME280;50681;53.334;-6.536;2023-05-13T07:42:14;102285.38;;;17.36;100.00
64354;BME280;50681;53.334;-6.536;2023-05-13T07:44:39;102284.78;;;17.39;100.00
64354;BME280;50681;53.334;-6.536;2023-05-13T07:47:05;102289.72;;;17.37;100.00
64354;BME280;50681;53.334;-6.536;2023-05-13T07:49:30;102289.44;;;17.58;100.00
64354;BME280;50681;53.334;-6.536;2023-05-13T07:51:56;102290.25;;;17.77;100.00
64354;BME280;50681;53.334;-6.536;2023-05-13T07:54:21;102294.41;;;17.75;100.00
64354;BME280;50681;53.334;-6.536;2023-05-13T07:56:47;102300.09;;;17.59;100.00
64354;BME280;50681;53.334;-6.536;2023-05-13T07:59:12;102294.84;;;17.82;100.00
64354;BME280;50681;53.334;-6.536;2023-05-13T08:01:38;102283.69;;;17.59;100.00
64354;BME280;50681;53.334;-6.536;2023-05-13T08:04:03;102289.75;;;17.75;100.00
64354;BME280;50681;53.334;-6.536;2023-05-13T08:06:29;102300.31;;;18.20;100.00
64354;BME280;50681;53.334;-6.536;2023-05-13T08:08:55;102295.91;;;18.39;100.00
64354;BME280;50681;53.334;-6.536;2023-05-13T08:11:21;102300.59;;;18.66;100.00
64354;BME280;50681;53.334;-6.536;2023-05-13T08:13:46;102297.91;;;18.80;100.00
64354;BME280;50681;53.334;-6.536;2023-05-13T08:16:12;102289.41;;;18.95;100.00
64354;BME280;50681;53.334;-6.536;2023-05-13T08:18:37;102298.72;;;18.94;100.00
64354;BME280;50681;53.334;-6.536;2023-05-13T08:21:03;102301.13;;;18.68;100.00
64354;BME280;50681;53.334;-6.536;2023-05-13T08:23:28;102302.53;;;18.65;100.00
64354;BME280;50681;53.334;-6.536;2023-05-13T08:25:53;102303.06;;;18.34;100.00
64354;BME280;50681;53.334;-6.536;2023-05-13T08:28:19;102297.78;;;18.71;100.00
64354;BME280;50681;53.334;-6.536;2023-05-13T08:30:44;102290.19;;;18.96;100.00
64354;BME280;50681;53.334;-6.536;2023-05-13T08:33:10;102309.25;;;18.87;100.00
64354;BME280;50681;53.334;-6.536;2023-05-13T08:35:36;102299.34;;;19.05;100.00
64354;BME280;50681;53.334;-6.536;2023-05-13T08:38:02;102296.59;;;18.91;100.00
64354;BME280;50681;53.334;-6.536;2023-05-13T08:40:31;102289.81;;;19.03;100.00
64354;BME280;50681;53.334;-6.536;2023-05-13T08:42:59;102304.19;;;18.94;100.00
64354;BME280;50681;53.334;-6.536;2023-05-13T08:45:28;102302.16;;;18.86;100.00
64354;BME280;50681;53.334;-6.536;2023-05-13T08:47:56;102292.03;;;19.29;100.00
64354;BME280;50681;53.334;-6.536;2023-05-13T08:50:23;102293.97;;;19.28;100.00
64354;BME280;50681;53.334;-6.536;2023-05-13T08:52:51;102304.41;;;19.26;100.00
64354;BME280;50681;53.334;-6.536;2023-05-13T08:55:19;102303.00;;;19.15;100.00
64354;BME280;50681;53.334;-6.536;2023-05-13T08:57:45;102296.81;;;19.23;100.00
64354;BME280;50681;53.334;-6.536;2023-05-13T09:00:11;102303.13;;;19.60;100.00
64354;BME280;50681;53.334;-6.536;2023-05-13T09:02:36;102290.56;;;19.96;100.00
64354;BME280;50681;53.334;-6.536;2023-05-13T09:05:06;102294.44;;;19.95;100.00
64354;BME280;50681;53.334;-6.536;2023-05-13T09:07:34;102302.25;;;19.88;100.00
64354;BME280;50681;53.334;-6.536;2023-05-13T09:10:00;102299.31;;;19.47;100.00
64354;BME280;50681;53.334;-6.536;2023-05-13T09:15:12;102304.72;;;19.75;100.00
64354;BME280;50681;53.334;-6.536;2023-05-13T09:17:41;102303.78;;;20.39;100.00
64354;BME280;50681;53.334;-6.536;2023-05-13T09:20:09;102293.59;;;20.40;100.00
64354;BME280;50681;53.334;-6.536;2023-05-13T09:22:38;102288.00;;;20.22;100.00
64354;BME280;50681;53.334;-6.536;2023-05-13T09:25:04;102287.75;;;20.33;100.00
64354;BME280;50681;53.334;-6.536;2023-05-13T09:27:36;102281.44;;;20.55;100.00
64354;BME280;50681;53.334;-6.536;2023-05-13T09:30:02;102282.63;;;20.71;100.00
64354;BME280;50681;53.334;-6.536;2023-05-13T09:32:28;102273.66;;;20.89;100.00
64354;BME280;50681;53.334;-6.536;2023-05-13T09:34:54;102279.56;;;21.13;100.00
64354;BME280;50681;53.334;-6.536;2023-05-13T09:37:22;102274.88;;;21.23;100.00
64354;BME280;50681;53.334;-6.536;2023-05-13T09:39:51;102267.63;;;21.27;100.00
64354;BME280;50681;53.334;-6.536;2023-05-13T09:42:17;102271.31;;;21.05;100.00
64354;BME280;50681;53.334;-6.536;2023-05-13T09:44:44;102266.28;;;20.98;100.00
64354;BME280;50681;53.334;-6.536;2023-05-13T09:47:11;102258.22;;;21.10;100.00
64354;BME280;50681;53.334;-6.536;2023-05-13T09:49:39;102263.06;;;21.13;100.00
64354;BME280;50681;53.334;-6.536;2023-05-13T09:52:05;102255.31;;;21.15;100.00
64354;BME280;50681;53.334;-6.536;2023-05-13T09:54:34;102251.63;;;21.38;100.00
64354;BME280;50681;53.334;-6.536;2023-05-13T09:57:00;102257.47;;;22.07;100.00
64354;BME280;50681;53.334;-6.536;2023-05-13T09:59:26;102251.19;;;21.80;100.00
64354;BME280;50681;53.334;-6.536;2023-05-13T10:01:52;102248.09;;;21.90;100.00
64354;BME280;50681;53.334;-6.536;2023-05-13T10:04:19;102255.13;;;22.35;100.00
64354;BME280;50681;53.334;-6.536;2023-05-13T10:06:46;102260.19;;;22.72;100.00
64354;BME280;50681;53.334;-6.536;2023-05-13T10:09:13;102246.63;;;22.58;100.00
64354;BME280;50681;53.334;-6.536;2023-05-13T10:11:44;102243.22;;;23.21;100.00
64354;BME280;50681;53.334;-6.536;2023-05-13T10:14:11;102239.22;;;22.88;100.00
64354;BME280;50681;53.334;-6.536;2023-05-13T10:16:37;102237.31;;;23.10;100.00
64354;BME280;50681;53.334;-6.536;2023-05-13T10:19:05;102233.97;;;23.26;100.00
64354;BME280;50681;53.334;-6.536;2023-05-13T10:21:30;102231.03;;;23.31;100.00
64354;BME280;50681;53.334;-6.536;2023-05-13T10:23:57;102225.84;;;23.29;100.00
64354;BME280;50681;53.334;-6.536;2023-05-13T10:26:23;102225.72;;;23.26;100.00
64354;BME280;50681;53.334;-6.536;2023-05-13T10:28:49;102230.00;;;22.84;100.00
64354;BME280;50681;53.334;-6.536;2023-05-13T10:31:16;102224.72;;;22.70;100.00
64354;BME280;50681;53.334;-6.536;2023-05-13T10:33:42;102215.50;;;22.27;100.00
64354;BME280;50681;53.334;-6.536;2023-05-13T10:36:19;102205.06;;;21.85;100.00
64354;BME280;50681;53.334;-6.536;2023-05-13T10:44:42;102199.56;;;21.85;100.00
64354;BME280;50681;53.334;-6.536;2023-05-13T10:47:08;102196.13;;;22.06;100.00
64354;BME280;50681;53.334;-6.536;2023-05-13T10:49:35;102198.53;;;22.16;100.00
64354;BME280;50681;53.334;-6.536;2023-05-13T10:52:05;102197.03;;;22.28;100.00
64354;BME280;50681;53.334;-6.536;2023-05-13T10:54:36;102192.84;;;22.22;100.00
64354;BME280;50681;53.334;-6.536;2023-05-13T10:57:03;102185.53;;;21.78;100.00
64354;BME280;50681;53.334;-6.536;2023-05-13T10:59:28;102171.44;;;21.88;100.00
64354;BME280;50681;53.334;-6.536;2023-05-13T11:01:55;102174.97;;;21.98;100.00
64354;BME280;50681;53.334;-6.536;2023-05-13T11:04:21;102172.31;;;22.19;100.00
64354;BME280;50681;53.334;-6.536;2023-05-13T11:06:49;102174.91;;;22.15;100.00
64354;BME280;50681;53.334;-6.536;2023-05-13T11:09:30;102170.09;;;22.42;100.00
64354;BME280;50681;53.334;-6.536;2023-05-13T11:11:57;102170.00;;;22.30;100.00
64354;BME280;50681;53.334;-6.536;2023-05-13T11:14:26;102170.03;;;22.21;100.00
64354;BME280;50681;53.334;-6.536;2023-05-13T11:19:31;102175.38;;;22.26;100.00
64354;BME280;50681;53.334;-6.536;2023-05-13T11:22:07;102180.34;;;22.33;100.00
64354;BME280;50681;53.334;-6.536;2023-05-13T11:24:36;102174.34;;;22.40;100.00
64354;BME280;50681;53.334;-6.536;2023-05-13T11:27:17;102167.72;;;22.71;100.00
64354;BME280;50681;53.334;-6.536;2023-05-13T11:29:49;102173.34;;;22.44;100.00
64354;BME280;50681;53.334;-6.536;2023-05-13T11:35:28;102165.47;;;22.64;100.00
64354;BME280;50681;53.334;-6.536;2023-05-13T11:37:55;102164.03;;;22.88;100.00
64354;BME280;50681;53.334;-6.536;2023-05-13T11:40:24;102163.16;;;22.96;100.00
64354;BME280;50681;53.334;-6.536;2023-05-13T11:42:51;102167.56;;;22.67;100.00
64354;BME280;50681;53.334;-6.536;2023-05-13T11:45:18;102164.97;;;22.92;100.00
64354;BME280;50681;53.334;-6.536;2023-05-13T11:47:44;102162.63;;;22.82;100.00
64354;BME280;50681;53.334;-6.536;2023-05-13T11:50:36;102169.38;;;23.36;100.00
64354;BME280;50681;53.334;-6.536;2023-05-13T11:53:02;102164.66;;;23.15;100.00
64354;BME280;50681;53.334;-6.536;2023-05-13T11:55:31;102155.81;;;23.30;100.00
64354;BME280;50681;53.334;-6.536;2023-05-13T11:57:58;102152.94;;;23.27;100.00
64354;BME280;50681;53.334;-6.536;2023-05-13T12:00:28;102154.66;;;23.10;100.00
64354;BME280;50681;53.334;-6.536;2023-05-13T12:02:54;102157.78;;;23.21;100.00
64354;BME280;50681;53.334;-6.536;2023-05-13T12:05:20;102162.31;;;23.81;100.00
64354;BME280;50681;53.334;-6.536;2023-05-13T12:07:46;102170.16;;;23.57;100.00
64354;BME280;50681;53.334;-6.536;2023-05-13T12:10:11;102144.19;;;23.25;100.00
64354;BME280;50681;53.334;-6.536;2023-05-13T12:12:38;102144.75;;;23.52;100.00
64354;BME280;50681;53.334;-6.536;2023-05-13T12:15:10;102146.84;;;24.01;100.00
64354;BME280;50681;53.334;-6.536;2023-05-13T12:17:36;102135.06;;;23.91;100.00
64354;BME280;50681;53.334;-6.536;2023-05-13T12:22:56;102144.94;;;23.80;100.00
64354;BME280;50681;53.334;-6.536;2023-05-13T12:28:18;102146.03;;;24.13;100.00
64354;BME280;50681;53.334;-6.536;2023-05-13T12:31:01;102128.69;;;24.37;100.00
64354;BME280;50681;53.334;-6.536;2023-05-13T12:33:39;102121.09;;;24.21;100.00
64354;BME280;50681;53.334;-6.536;2023-05-13T12:36:20;102122.91;;;24.55;100.00
64354;BME280;50681;53.334;-6.536;2023-05-13T12:38:57;102112.13;;;24.37;100.00
64354;BME280;50681;53.334;-6.536;2023-05-13T12:41:25;102098.53;;;24.57;100.00
64354;BME280;50681;53.334;-6.536;2023-05-13T12:44:17;102092.69;;;24.99;100.00
64354;BME280;50681;53.334;-6.536;2023-05-13T12:46:53;102075.81;;;24.63;100.00
64354;BME280;50681;53.334;-6.536;2023-05-13T12:49:19;102075.63;;;24.44;100.00
64354;BME280;50681;53.334;-6.536;2023-05-13T12:51:44;102077.47;;;23.90;100.00
64354;BME280;50681;53.334;-6.536;2023-05-13T12:54:11;102076.56;;;23.98;100.00